Time;durP1;ratioP1;P1;durP2;ratioP2;P2;SDS_P1;SDS_P2;PMS_P1;PMS_P2;Temp;Humidity;BMP_temperature;BMP_pressure;BME280_temperature;BME280_humidity;BME280_pressure;Samples;Min_cycle;Max_cycle;Signal;HPM_P1;HPM_P2
2022/01/12 00:01:11;;;;;;;4.33;3.87;;;4.00;99.90;;;;;;5009567;28;20403;-68
2022/01/12 00:03:37;;;;;;;5.03;3.57;;;4.00;99.90;;;;;;5010721;28;20453;-69
2022/01/12 00:06:04;;;;;;;4.27;3.60;;;4.00;99.90;;;;;;5039795;23;20589;-69
2022/01/12 00:08:31;;;;;;;5.77;4.10;;;3.90;99.90;;;;;;5016502;28;20466;-69
2022/01/12 00:10:59;;;;;;;6.47;4.20;;;3.90;99.90;;;;;;5012159;28;20794;-69
2022/01/12 00:13:24;;;;;;;4.17;3.40;;;3.80;99.90;;;;;;5025723;28;20429;-68
2022/01/12 00:15:50;;;;;;;5.37;4.67;;;3.80;99.90;;;;;;5019553;28;20968;-69
2022/01/12 00:18:16;;;;;;;6.47;4.70;;;3.80;99.90;;;;;;5019854;28;20708;-69
2022/01/12 00:20:42;;;;;;;5.97;4.67;;;3.70;99.90;;;;;;5023603;28;20503;-70
2022/01/12 00:23:08;;;;;;;5.63;4.67;;;3.70;99.90;;;;;;5024349;28;20175;-70
2022/01/12 00:25:55;;;;;;;5.17;4.33;;;3.70;99.90;;;;;;5022874;28;20435;-70
2022/01/12 00:33:09;;;;;;;5.53;4.63;;;3.60;99.90;;;;;;5020227;28;20466;-69
2022/01/12 00:33:54;;;;;;;6.37;3.60;;;3.50;99.90;;;;;;5014812;28;20467;-69
2022/01/12 00:36:20;;;;;;;3.70;3.40;;;3.40;99.90;;;;;;5014599;28;20462;-70
2022/01/12 00:38:47;;;;;;;6.03;4.40;;;3.40;99.90;;;;;;5014599;28;20255;-69
2022/01/12 00:41:16;;;;;;;6.90;4.50;;;3.30;99.90;;;;;;5014315;28;20442;-69
2022/01/12 00:43:44;;;;;;;7.03;4.80;;;3.40;99.90;;;;;;5012979;28;20411;-69
2022/01/12 00:46:09;;;;;;;5.80;4.33;;;3.40;99.90;;;;;;5013777;28;20438;-69
2022/01/12 00:48:36;;;;;;;4.63;4.23;;;3.50;99.90;;;;;;5013929;28;20454;-70
2022/01/12 00:51:03;;;;;;;5.93;4.10;;;3.50;99.90;;;;;;5014104;28;20231;-68
2022/01/12 00:53:29;;;;;;;6.80;4.43;;;3.40;99.90;;;;;;5014043;28;20412;-70
2022/01/12 00:55:56;;;;;;;6.87;4.73;;;3.40;99.90;;;;;;5013909;28;20431;-69
2022/01/12 00:58:21;;;;;;;5.83;4.20;;;3.40;99.90;;;;;;5014202;28;20414;-69
2022/01/12 01:00:47;;;;;;;5.80;4.47;;;3.30;99.90;;;;;;5014303;28;20420;-70
2022/01/12 01:03:13;;;;;;;6.13;4.40;;;3.20;99.90;;;;;;5014378;28;20208;-69
2022/01/12 01:05:38;;;;;;;5.20;4.70;;;3.20;99.90;;;;;;5012580;28;20236;-69
2022/01/12 01:08:04;;;;;;;6.40;4.90;;;3.10;99.90;;;;;;5012701;28;20192;-69
2022/01/12 01:10:51;;;;;;;7.10;4.80;;;3.10;99.90;;;;;;5014057;28;20176;-68
2022/01/12 01:13:26;;;;;;;8.50;4.70;;;3.20;99.90;;;;;;5012474;28;20811;-70
2022/01/12 01:16:04;;;;;;;9.23;4.90;;;3.30;99.90;;;;;;5013735;28;20439;-69
2022/01/12 01:26:45;;;;;;;5.60;5.00;;;3.50;99.90;;;;;;5023080;28;20497;-70
2022/01/12 01:29:11;;;;;;;7.90;5.37;;;3.50;99.90;;;;;;5022395;28;20426;-69
2022/01/12 01:31:37;;;;;;;12.37;5.30;;;3.30;99.90;;;;;;5021904;28;20171;-70
2022/01/12 01:34:09;;;;;;;7.37;5.13;;;3.30;99.90;;;;;;5014859;28;20421;-69
2022/01/12 01:36:54;;;;;;;6.17;4.50;;;3.40;99.90;;;;;;5013274;28;21120;-70
2022/01/12 01:39:23;;;;;;;5.53;4.57;;;3.50;99.90;;;;;;5012098;28;20407;-70
2022/01/12 01:41:59;;;;;;;6.53;4.77;;;3.60;99.90;;;;;;5012945;28;20427;-69
2022/01/12 01:55:07;;;;;;;4.63;3.53;;;4.00;99.90;;;;;;5012897;28;20976;-69
2022/01/12 01:57:33;;;;;;;4.77;4.30;;;4.10;99.90;;;;;;5012298;28;20462;-68
2022/01/12 01:59:59;;;;;;;5.30;3.87;;;4.10;99.90;;;;;;5012464;28;20812;-69
2022/01/12 02:02:24;;;;;;;6.60;5.23;;;4.20;99.90;;;;;;5012559;28;20211;-69
2022/01/12 02:04:50;;;;;;;6.47;5.13;;;4.20;99.90;;;;;;5012308;28;20591;-69
2022/01/12 02:07:16;;;;;;;5.80;4.47;;;4.20;99.90;;;;;;5012218;28;20206;-70
2022/01/12 02:09:41;;;;;;;5.10;4.53;;;4.10;99.90;;;;;;5012487;28;20169;-69
2022/01/12 02:12:07;;;;;;;4.90;4.20;;;4.10;99.90;;;;;;5010923;28;20180;-70
2022/01/12 02:14:34;;;;;;;6.60;4.63;;;4.10;99.90;;;;;;5012278;28;20292;-69
2022/01/12 02:17:09;;;;;;;7.77;4.60;;;4.10;99.90;;;;;;5012019;28;20422;-69
2022/01/12 02:36:20;;;;;;;5.90;4.63;;;4.50;99.90;;;;;;4931997;29;20512;-69
2022/01/12 02:41:31;;;;;;;7.47;4.27;;;4.40;99.90;;;;;;4932753;29;20419;-68
2022/01/12 02:54:45;;;;;;;6.30;4.90;;;4.40;99.90;;;;;;4932318;29;20517;-69
2022/01/12 02:57:11;;;;;;;4.87;4.40;;;4.40;99.90;;;;;;4934368;29;20205;-68
2022/01/12 02:59:42;;;;;;;6.20;4.80;;;4.30;99.90;;;;;;4935825;29;20838;-69
2022/01/12 03:02:31;;;;;;;6.10;5.00;;;4.30;99.90;;;;;;4935809;29;20185;-69
2022/01/12 03:05:20;;;;;;;5.80;5.10;;;4.30;99.90;;;;;;5003343;28;20454;-69
2022/01/12 03:07:46;;;;;;;6.37;5.43;;;4.30;99.90;;;;;;5014860;28;20879;-68
2022/01/12 03:10:12;;;;;;;7.43;5.33;;;4.30;99.90;;;;;;5015219;28;20508;-70
2022/01/12 03:12:39;;;;;;;8.40;5.60;;;4.30;99.90;;;;;;5015631;28;20551;-69
2022/01/12 03:15:05;;;;;;;6.90;5.57;;;4.30;99.90;;;;;;5015675;28;20518;-69
2022/01/12 03:17:31;;;;;;;7.67;5.77;;;4.10;99.90;;;;;;5014529;28;20433;-69
2022/01/12 03:19:56;;;;;;;7.23;5.70;;;4.00;99.90;;;;;;5015315;28;20430;-69
2022/01/12 03:22:22;;;;;;;6.87;5.10;;;3.80;99.90;;;;;;5015408;28;20185;-70
2022/01/12 03:24:48;;;;;;;7.10;5.37;;;3.80;99.90;;;;;;5015752;28;20206;-70
2022/01/12 03:27:15;;;;;;;6.40;4.80;;;3.80;99.90;;;;;;5013720;28;20582;-69
2022/01/12 03:29:49;;;;;;;6.90;5.73;;;3.80;99.90;;;;;;5013997;28;20419;-69
2022/01/12 03:32:19;;;;;;;10.70;6.70;;;3.90;99.90;;;;;;5015222;28;20400;-69
2022/01/12 03:34:53;;;;;;;7.93;5.50;;;3.90;99.90;;;;;;5014853;28;20447;-69
2022/01/12 03:40:16;;;;;;;5.83;5.33;;;4.00;99.90;;;;;;4971780;28;20427;-69
2022/01/12 03:42:42;;;;;;;5.63;4.90;;;4.00;99.90;;;;;;5015186;28;20902;-70
2022/01/12 03:45:07;;;;;;;6.50;5.40;;;4.00;99.90;;;;;;5014884;28;20201;-68
2022/01/12 03:47:33;;;;;;;6.60;4.93;;;4.00;99.90;;;;;;5014749;28;20210;-69
2022/01/12 03:49:58;;;;;;;5.13;4.63;;;3.90;99.90;;;;;;5015559;28;20171;-71
2022/01/12 03:52:24;;;;;;;5.37;4.80;;;3.90;99.90;;;;;;5015477;28;20211;-69
2022/01/12 03:54:50;;;;;;;6.60;5.40;;;4.00;99.90;;;;;;5014661;28;20192;-69
2022/01/12 03:57:15;;;;;;;6.50;5.90;;;4.00;99.90;;;;;;5014518;28;20215;-70
2022/01/12 03:59:41;;;;;;;6.30;5.20;;;4.00;99.90;;;;;;5014510;28;20185;-70
2022/01/12 04:02:06;;;;;;;6.97;5.57;;;4.10;99.90;;;;;;5013931;28;20202;-69
2022/01/12 04:04:37;;;;;;;6.50;5.10;;;4.10;99.90;;;;;;5013527;28;20192;-68
2022/01/12 04:09:47;;;;;;;5.60;4.93;;;4.30;99.90;;;;;;5014279;28;20396;-69
2022/01/12 04:12:14;;;;;;;8.47;6.40;;;4.40;99.90;;;;;;5014094;28;20779;-69
2022/01/12 04:14:39;;;;;;;6.13;5.53;;;4.40;99.90;;;;;;5014382;28;20548;-69
2022/01/12 04:17:05;;;;;;;7.23;6.53;;;4.50;99.90;;;;;;5014317;28;20425;-69
2022/01/12 04:19:30;;;;;;;7.03;6.33;;;4.50;99.90;;;;;;5013050;28;20644;-68
2022/01/12 04:22:06;;;;;;;6.10;5.47;;;4.60;99.90;;;;;;5013819;28;20188;-68
2022/01/12 04:24:32;;;;;;;6.50;5.53;;;4.50;99.90;;;;;;5014654;28;20615;-70
2022/01/12 04:26:57;;;;;;;7.90;5.67;;;4.60;99.90;;;;;;5014857;28;20484;-70
2022/01/12 04:29:23;;;;;;;6.63;5.43;;;4.50;99.90;;;;;;5014834;28;20687;-70
2022/01/12 04:31:48;;;;;;;6.50;5.87;;;4.60;99.90;;;;;;5014699;28;20249;-69
2022/01/12 04:34:14;;;;;;;8.43;5.80;;;4.70;99.90;;;;;;5014245;28;20178;-69
2022/01/12 04:36:39;;;;;;;7.83;5.73;;;4.70;99.90;;;;;;5013984;28;20204;-70
2022/01/12 04:39:05;;;;;;;6.37;5.77;;;4.60;99.90;;;;;;5014501;28;20295;-69
2022/01/12 04:41:30;;;;;;;7.30;5.90;;;4.50;99.90;;;;;;5014276;28;20164;-69
2022/01/12 04:43:57;;;;;;;6.50;5.50;;;4.50;99.90;;;;;;5014081;28;20170;-69
2022/01/12 04:46:39;;;;;;;9.03;6.47;;;4.50;99.90;;;;;;5012460;28;20685;-69
2022/01/12 04:49:19;;;;;;;10.50;6.60;;;4.60;99.90;;;;;;5013936;28;20414;-69
2022/01/12 04:51:45;;;;;;;7.37;6.47;;;4.60;99.90;;;;;;5013664;28;21121;-69
2022/01/12 04:54:10;;;;;;;7.10;6.17;;;4.60;99.90;;;;;;5013522;28;20466;-70
2022/01/12 04:56:36;;;;;;;6.53;5.50;;;4.70;99.90;;;;;;5013291;28;20202;-69
2022/01/12 04:59:02;;;;;;;6.60;6.00;;;4.70;99.90;;;;;;5013694;28;20177;-68
2022/01/12 05:01:28;;;;;;;7.93;7.00;;;4.60;99.90;;;;;;5012314;28;20179;-68
2022/01/12 05:07:24;;;;;;;7.43;6.37;;;4.60;99.90;;;;;;5012906;28;20461;-69
2022/01/12 05:09:42;;;;;;;7.77;7.00;;;4.70;99.90;;;;;;5012852;28;20460;-69
2022/01/12 05:15:11;;;;;;;6.83;5.90;;;4.70;99.90;;;;;;5013106;28;20627;-69
2022/01/12 05:17:37;;;;;;;7.83;6.37;;;4.60;99.90;;;;;;5012750;28;20393;-68
2022/01/12 05:20:03;;;;;;;8.17;6.80;;;4.70;99.90;;;;;;5011582;28;20417;-69
2022/01/12 05:22:29;;;;;;;6.83;6.20;;;4.80;99.90;;;;;;5013065;28;20189;-69
2022/01/12 05:24:54;;;;;;;8.70;6.57;;;4.90;99.90;;;;;;5012878;28;20497;-68
2022/01/12 05:27:20;;;;;;;7.73;6.43;;;5.00;99.90;;;;;;5012300;28;20195;-69
2022/01/12 05:29:45;;;;;;;9.90;6.87;;;5.00;99.90;;;;;;5013125;28;20660;-70
2022/01/12 05:32:11;;;;;;;6.87;6.17;;;5.00;99.90;;;;;;5012821;28;20182;-69
2022/01/12 05:34:38;;;;;;;7.60;6.77;;;5.00;99.90;;;;;;5012718;28;20637;-69
2022/01/12 05:37:04;;;;;;;7.57;6.87;;;5.10;99.90;;;;;;5012330;28;20168;-68
2022/01/12 05:39:29;;;;;;;7.53;6.77;;;5.10;99.90;;;;;;5012843;28;20415;-69
2022/01/12 05:41:55;;;;;;;7.27;6.47;;;5.10;99.90;;;;;;5012792;28;20183;-69
2022/01/12 05:44:22;;;;;;;7.47;6.60;;;5.10;99.90;;;;;;5012706;28;20555;-69
2022/01/12 05:46:48;;;;;;;7.43;6.73;;;5.00;99.90;;;;;;5012366;28;20269;-69
2022/01/12 05:51:59;;;;;;;9.30;6.57;;;5.00;99.90;;;;;;5012752;28;20434;-69
2022/01/12 05:54:25;;;;;;;8.23;7.43;;;5.00;99.90;;;;;;5012497;28;20417;-70
2022/01/12 05:56:51;;;;;;;7.93;7.00;;;5.00;99.90;;;;;;5013031;28;20315;-70
2022/01/12 05:59:17;;;;;;;8.60;7.00;;;5.00;99.90;;;;;;5015665;28;20560;-69
2022/01/12 06:01:43;;;;;;;9.33;6.60;;;5.00;99.90;;;;;;5012369;28;20413;-70
2022/01/12 06:04:09;;;;;;;8.10;7.30;;;5.10;99.90;;;;;;5012076;28;20624;-69
2022/01/12 06:06:34;;;;;;;7.57;6.70;;;5.10;99.90;;;;;;5038926;22;20231;-70
2022/01/12 06:09:00;;;;;;;8.13;7.33;;;5.00;99.90;;;;;;5017783;28;20172;-70
2022/01/12 06:11:25;;;;;;;10.17;8.17;;;5.00;99.90;;;;;;5010034;28;20206;-70
2022/01/12 06:13:52;;;;;;;10.80;8.80;;;4.80;99.90;;;;;;5010076;28;20246;-71
2022/01/12 06:16:18;;;;;;;10.10;8.70;;;4.90;99.90;;;;;;5011404;28;20183;-72
2022/01/12 06:18:43;;;;;;;8.50;7.50;;;4.80;99.90;;;;;;5010656;28;20609;-71
2022/01/12 06:21:09;;;;;;;8.30;7.20;;;4.90;99.90;;;;;;5026545;28;20499;-71
2022/01/12 06:23:34;;;;;;;10.80;7.93;;;5.00;99.90;;;;;;5021863;28;20194;-70
2022/01/12 06:26:00;;;;;;;10.10;8.00;;;5.00;99.90;;;;;;5023516;28;20223;-69
2022/01/12 06:31:17;;;;;;;9.07;7.90;;;5.10;99.90;;;;;;5029348;28;20178;-71
2022/01/12 06:33:49;;;;;;;11.47;9.13;;;5.10;99.90;;;;;;5027214;28;20551;-69
2022/01/12 06:36:20;;;;;;;10.67;9.57;;;5.10;99.90;;;;;;5033479;28;20472;-70
2022/01/12 06:38:45;;;;;;;8.67;7.70;;;5.00;99.90;;;;;;5034896;28;20937;-70
2022/01/12 06:41:11;;;;;;;9.60;7.93;;;4.90;99.90;;;;;;5032144;28;20439;-70
2022/01/12 06:43:37;;;;;;;8.30;7.50;;;4.80;99.90;;;;;;5032625;28;20217;-70
2022/01/12 06:46:04;;;;;;;11.03;8.07;;;4.70;99.90;;;;;;5029248;28;20543;-70
2022/01/12 06:48:31;;;;;;;9.67;8.30;;;4.80;99.90;;;;;;5027836;28;20835;-70
2022/01/12 06:50:56;;;;;;;8.67;6.90;;;4.80;99.90;;;;;;5035157;28;20502;-70
2022/01/12 06:53:22;;;;;;;8.40;6.87;;;4.90;99.90;;;;;;5031534;28;20459;-71
2022/01/12 06:55:48;;;;;;;11.00;7.70;;;5.00;99.90;;;;;;5029078;28;20988;-71
2022/01/12 06:58:18;;;;;;;10.13;8.27;;;5.10;99.90;;;;;;5031750;28;20189;-71
2022/01/12 07:00:59;;;;;;;10.00;8.73;;;5.10;99.90;;;;;;5032214;28;20705;-72
2022/01/12 07:03:24;;;;;;;13.93;11.10;;;5.20;99.90;;;;;;5016786;28;20447;-72
2022/01/12 07:05:50;;;;;;;10.27;9.27;;;5.20;99.90;;;;;;5030637;28;20463;-71
2022/01/12 07:08:15;;;;;;;11.97;9.03;;;5.20;99.90;;;;;;5031659;28;20206;-71
2022/01/12 07:10:41;;;;;;;10.90;8.97;;;5.20;99.90;;;;;;5031023;28;20175;-71
2022/01/12 07:13:10;;;;;;;10.33;8.97;;;5.30;99.90;;;;;;5031205;28;20261;-71
2022/01/12 07:15:40;;;;;;;10.03;8.80;;;5.20;99.90;;;;;;5030488;28;20197;-70
2022/01/12 07:18:06;;;;;;;9.13;7.80;;;5.30;99.90;;;;;;5031224;28;20423;-72
2022/01/12 07:20:32;;;;;;;12.43;8.63;;;5.20;99.90;;;;;;5031207;28;20833;-70
2022/01/12 07:22:57;;;;;;;10.23;7.70;;;5.30;99.90;;;;;;5025448;28;20484;-70
2022/01/12 07:25:23;;;;;;;8.80;7.00;;;5.30;99.90;;;;;;5044653;28;20203;-71
2022/01/12 07:27:48;;;;;;;9.00;7.90;;;5.40;99.90;;;;;;5034734;28;20773;-71
2022/01/12 07:30:14;;;;;;;10.40;7.17;;;5.40;99.90;;;;;;5025526;28;20239;-70
2022/01/12 07:32:39;;;;;;;13.20;7.67;;;5.40;99.90;;;;;;5032092;28;20291;-71
2022/01/12 07:35:06;;;;;;;9.50;8.03;;;5.40;99.90;;;;;;5039397;28;20237;-70
2022/01/12 07:37:32;;;;;;;9.70;7.80;;;5.50;99.90;;;;;;5041866;28;20247;-71
2022/01/12 07:39:58;;;;;;;11.53;8.03;;;5.40;99.90;;;;;;5030451;28;20483;-72
2022/01/12 07:42:24;;;;;;;10.27;8.00;;;5.40;99.90;;;;;;5029323;28;20455;-70
2022/01/12 07:44:58;;;;;;;9.10;7.30;;;5.40;99.90;;;;;;5030077;28;20445;-71
2022/01/12 07:47:23;;;;;;;9.63;8.07;;;5.50;99.90;;;;;;5024546;28;20841;-72
2022/01/12 07:49:49;;;;;;;12.47;8.33;;;5.50;99.90;;;;;;5030317;28;20440;-68
2022/01/12 07:52:14;;;;;;;8.90;8.00;;;5.50;99.90;;;;;;5018031;28;20622;-70
2022/01/12 07:54:40;;;;;;;9.20;7.77;;;5.50;99.90;;;;;;5043071;28;20186;-70
2022/01/12 07:57:05;;;;;;;12.63;8.23;;;5.50;99.90;;;;;;5029485;28;20218;-70
2022/01/12 07:59:31;;;;;;;11.10;8.33;;;5.40;99.90;;;;;;5029992;28;20207;-70
2022/01/12 08:01:57;;;;;;;12.33;8.23;;;5.50;99.90;;;;;;5030268;28;20199;-70
2022/01/12 08:04:22;;;;;;;11.73;8.30;;;5.40;99.90;;;;;;5030362;28;20179;-71
2022/01/12 08:06:48;;;;;;;10.20;7.60;;;5.40;99.90;;;;;;5032702;28;20226;-71
2022/01/12 08:09:13;;;;;;;12.80;8.30;;;5.40;99.90;;;;;;5030404;28;20183;-69
2022/01/12 08:11:39;;;;;;;10.60;9.10;;;5.40;99.90;;;;;;5030281;28;20187;-69
2022/01/12 08:14:04;;;;;;;10.80;8.80;;;5.40;99.90;;;;;;5030088;28;20257;-70
2022/01/12 08:16:30;;;;;;;12.10;8.30;;;5.40;99.90;;;;;;5029705;28;20274;-70
2022/01/12 08:18:56;;;;;;;13.47;8.67;;;5.40;99.90;;;;;;5030661;28;20197;-70
2022/01/12 08:21:23;;;;;;;10.13;7.97;;;5.40;99.90;;;;;;5024541;28;20191;-69
2022/01/12 08:23:48;;;;;;;11.63;8.17;;;5.50;99.90;;;;;;5029659;28;20468;-69
2022/01/12 08:26:14;;;;;;;11.87;7.50;;;5.50;99.90;;;;;;5029564;28;20469;-69
2022/01/12 08:28:40;;;;;;;11.90;8.57;;;5.50;99.90;;;;;;5029608;28;20206;-70
2022/01/12 08:31:05;;;;;;;12.63;8.10;;;5.50;99.90;;;;;;5030149;28;20204;-69
2022/01/12 08:33:32;;;;;;;10.23;8.30;;;5.40;99.90;;;;;;5030050;28;20170;-70
2022/01/12 08:35:57;;;;;;;11.47;8.70;;;5.50;99.90;;;;;;5029947;28;20464;-71
2022/01/12 08:38:26;;;;;;;10.50;8.53;;;5.40;99.90;;;;;;5030441;28;20829;-70
2022/01/12 08:40:52;;;;;;;10.73;7.93;;;5.50;99.90;;;;;;5032995;28;20611;-71
2022/01/12 08:43:18;;;;;;;13.00;9.13;;;5.50;99.90;;;;;;5030410;28;20460;-70
2022/01/12 08:45:43;;;;;;;14.37;9.00;;;5.50;99.90;;;;;;5029597;28;20441;-70
2022/01/12 08:48:09;;;;;;;10.20;8.20;;;5.50;99.90;;;;;;5029126;28;20202;-70
2022/01/12 08:50:34;;;;;;;11.00;8.63;;;5.50;99.90;;;;;;5029294;28;20648;-70
2022/01/12 08:53:00;;;;;;;12.97;8.83;;;5.50;99.90;;;;;;5029243;28;20713;-71
2022/01/12 08:55:31;;;;;;;10.77;8.93;;;5.60;99.90;;;;;;5029433;28;20179;-71
2022/01/12 08:58:03;;;;;;;12.93;8.07;;;5.50;99.90;;;;;;5029238;28;20190;-69
2022/01/12 09:00:29;;;;;;;11.67;8.40;;;5.40;99.90;;;;;;5027237;28;20426;-69
2022/01/12 09:02:55;;;;;;;11.40;9.00;;;5.40;99.90;;;;;;5029752;28;20501;-71
2022/01/12 09:05:20;;;;;;;12.40;9.30;;;5.50;99.90;;;;;;5028960;28;20194;-70
2022/01/12 09:07:46;;;;;;;11.63;8.13;;;5.60;99.90;;;;;;5029165;28;20637;-70
2022/01/12 09:10:12;;;;;;;11.30;8.60;;;5.70;99.90;;;;;;5028559;28;20183;-71
2022/01/12 09:12:38;;;;;;;12.10;9.60;;;5.70;99.90;;;;;;5029082;28;20186;-71
2022/01/12 09:15:08;;;;;;;12.00;9.47;;;5.70;99.90;;;;;;5028945;28;20509;-71
2022/01/12 09:17:35;;;;;;;14.97;10.60;;;5.60;99.90;;;;;;5028978;28;20417;-70
2022/01/12 09:20:01;;;;;;;21.80;8.97;;;5.60;99.90;;;;;;5028457;28;20486;-71
2022/01/12 09:22:27;;;;;;;11.40;8.90;;;5.70;99.90;;;;;;5029145;28;20426;-71
2022/01/12 09:24:53;;;;;;;12.40;9.47;;;5.60;99.90;;;;;;5028797;28;20433;-70
2022/01/12 09:27:19;;;;;;;11.37;8.77;;;5.60;99.90;;;;;;5028791;28;20267;-71
2022/01/12 09:29:46;;;;;;;11.40;9.03;;;5.50;99.90;;;;;;5029016;28;20452;-71
2022/01/12 09:32:12;;;;;;;12.73;9.73;;;5.50;99.90;;;;;;5028953;28;20414;-69
2022/01/12 09:34:38;;;;;;;15.33;9.30;;;5.50;99.90;;;;;;5029175;28;20486;-70
2022/01/12 09:37:04;;;;;;;16.30;9.40;;;5.60;99.90;;;;;;5028729;28;20834;-69
2022/01/12 09:39:30;;;;;;;12.67;9.80;;;5.50;99.90;;;;;;5029922;28;20576;-71
2022/01/12 09:41:57;;;;;;;15.30;10.33;;;5.60;99.90;;;;;;5029145;28;20460;-70
2022/01/12 09:44:31;;;;;;;15.57;11.13;;;5.60;99.90;;;;;;5028600;28;20444;-70
2022/01/12 09:46:56;;;;;;;12.23;9.70;;;5.60;99.90;;;;;;5027984;28;20884;-70
2022/01/12 09:49:22;;;;;;;15.77;9.87;;;5.50;99.90;;;;;;5028684;28;20509;-71
2022/01/12 09:51:51;;;;;;;14.30;9.23;;;5.50;99.90;;;;;;5028919;28;20185;-71
2022/01/12 09:54:18;;;;;;;13.20;9.43;;;5.60;99.90;;;;;;5024241;28;20182;-69
2022/01/12 09:56:43;;;;;;;17.70;10.67;;;5.50;99.90;;;;;;5028026;28;20441;-70
2022/01/12 09:59:09;;;;;;;14.20;9.97;;;5.60;99.90;;;;;;5028160;28;20423;-70
2022/01/12 10:01:39;;;;;;;15.00;9.60;;;5.60;99.90;;;;;;5028491;28;20170;-69
2022/01/12 10:04:11;;;;;;;12.23;9.40;;;5.70;99.90;;;;;;5028247;28;20210;-68
2022/01/12 10:06:43;;;;;;;14.60;10.45;;;5.80;99.90;;;;;;5027232;28;20457;-70
2022/01/12 10:09:09;;;;;;;14.53;10.60;;;5.90;99.90;;;;;;5028349;28;20556;-69
2022/01/12 10:11:38;;;;;;;15.73;10.50;;;6.00;99.90;;;;;;5028284;28;20508;-70
2022/01/12 10:14:06;;;;;;;16.57;10.60;;;5.90;99.90;;;;;;5028388;28;20209;-70
2022/01/12 10:16:32;;;;;;;16.43;10.60;;;5.80;99.90;;;;;;5028578;28;20970;-68
2022/01/12 10:19:00;;;;;;;11.47;9.83;;;5.90;99.90;;;;;;5029105;28;20446;-69
2022/01/12 10:21:37;;;;;;;17.20;10.80;;;5.90;99.90;;;;;;5028801;28;20653;-71
2022/01/12 10:24:06;;;;;;;15.50;10.73;;;6.00;99.90;;;;;;5028216;28;20425;-71
2022/01/12 10:26:37;;;;;;;15.43;10.50;;;6.00;99.90;;;;;;5027770;28;20441;-71
2022/01/12 10:29:05;;;;;;;18.40;10.53;;;6.10;99.90;;;;;;5030866;28;20880;-71
2022/01/12 10:31:56;;;;;;;17.30;11.20;;;6.00;99.90;;;;;;5037504;28;20421;-70
2022/01/12 10:34:24;;;;;;;19.50;11.60;;;5.80;99.90;;;;;;5043080;28;20416;-70
2022/01/12 10:36:51;;;;;;;16.40;11.10;;;5.80;99.90;;;;;;5042802;28;20455;-69
2022/01/12 10:39:18;;;;;;;16.90;11.77;;;5.90;99.90;;;;;;5045189;28;20412;-70
2022/01/12 10:41:54;;;;;;;17.70;12.83;;;5.70;99.90;;;;;;5042158;28;20425;-70
2022/01/12 10:44:26;;;;;;;16.13;10.97;;;5.80;99.90;;;;;;5042084;28;20409;-70
2022/01/12 10:47:13;;;;;;;18.60;11.47;;;5.80;99.90;;;;;;5030699;28;20540;-70
2022/01/12 10:49:56;;;;;;;22.33;13.10;;;5.80;99.90;;;;;;5016333;28;20495;-70
2022/01/12 10:52:49;;;;;;;19.63;12.50;;;5.80;99.90;;;;;;5030339;28;20551;-70
2022/01/12 10:55:17;;;;;;;20.37;11.70;;;6.00;99.90;;;;;;5027725;28;20539;-71
2022/01/12 10:57:44;;;;;;;19.40;12.43;;;6.10;99.90;;;;;;5027349;28;20433;-68
2022/01/12 11:00:18;;;;;;;15.97;11.23;;;6.20;99.90;;;;;;5028135;28;20444;-70
2022/01/12 11:02:47;;;;;;;18.73;12.00;;;6.30;99.90;;;;;;5028432;28;20413;-71
2022/01/12 11:05:13;;;;;;;17.20;12.00;;;6.20;99.90;;;;;;5027495;28;20436;-71
2022/01/12 11:07:39;;;;;;;22.57;13.00;;;6.30;99.90;;;;;;5027717;28;20465;-70
2022/01/12 11:10:09;;;;;;;17.80;12.83;;;6.20;99.90;;;;;;5027521;28;20432;-70
2022/01/12 11:12:35;;;;;;;19.30;12.93;;;6.20;99.90;;;;;;5027491;28;20175;-70
2022/01/12 11:15:13;;;;;;;20.20;12.77;;;6.20;99.90;;;;;;5027921;28;20445;-68
2022/01/12 11:17:40;;;;;;;20.03;12.67;;;6.30;99.90;;;;;;5029085;28;20420;-69
2022/01/12 11:20:27;;;;;;;17.63;12.33;;;6.30;99.90;;;;;;5030730;28;21068;-70
2022/01/12 11:22:58;;;;;;;19.77;13.17;;;6.30;99.90;;;;;;5031471;28;20433;-69
2022/01/12 11:25:48;;;;;;;21.57;13.63;;;6.30;99.90;;;;;;5027813;28;20448;-69
2022/01/12 11:28:17;;;;;;;21.70;14.80;;;6.30;99.90;;;;;;5019658;28;21260;-70
2022/01/12 11:30:57;;;;;;;21.67;13.37;;;6.40;99.90;;;;;;5031021;28;20825;-70
2022/01/12 11:33:33;;;;;;;24.77;14.97;;;6.30;99.90;;;;;;5014959;28;20413;-69
2022/01/12 11:36:24;;;;;;;21.27;13.53;;;6.40;99.90;;;;;;5030799;28;20438;-69
2022/01/12 11:39:04;;;;;;;36.07;14.53;;;6.10;99.90;;;;;;5032617;28;20658;-68
2022/01/12 11:41:32;;;;;;;26.17;14.87;;;6.10;99.90;;;;;;5014971;28;20417;-69
2022/01/12 11:44:03;;;;;;;22.20;14.37;;;6.10;99.90;;;;;;5030570;28;20508;-69
2022/01/12 11:46:50;;;;;;;26.90;15.07;;;6.10;99.90;;;;;;5035765;28;20946;-70
2022/01/12 11:49:25;;;;;;;28.03;15.77;;;6.20;99.90;;;;;;5032678;28;20780;-69
2022/01/12 11:51:50;;;;;;;28.53;16.93;;;6.30;99.90;;;;;;5032038;28;20408;-70
2022/01/12 11:54:19;;;;;;;28.73;16.23;;;6.30;99.90;;;;;;5030764;28;20418;-69
2022/01/12 11:56:55;;;;;;;29.93;17.70;;;6.10;99.90;;;;;;5028329;28;20209;-70
2022/01/12 11:59:22;;;;;;;30.50;17.53;;;5.80;99.90;;;;;;5029296;28;20454;-70
2022/01/12 12:02:09;;;;;;;27.33;16.80;;;5.60;99.90;;;;;;5028525;28;20417;-68
2022/01/12 12:04:34;;;;;;;28.13;17.70;;;5.40;99.90;;;;;;5030134;28;20419;-68
2022/01/12 12:07:14;;;;;;;27.40;16.40;;;5.40;99.90;;;;;;5045073;22;21027;-69
2022/01/12 12:09:48;;;;;;;31.40;18.83;;;5.40;99.90;;;;;;5016496;28;20218;-69
2022/01/12 12:12:34;;;;;;;27.30;17.77;;;5.30;99.90;;;;;;5012373;28;20413;-69
2022/01/12 12:15:04;;;;;;;34.00;18.13;;;5.30;99.90;;;;;;4994351;28;20428;-69
2022/01/12 12:17:31;;;;;;;28.83;18.40;;;5.30;99.90;;;;;;5011392;28;20441;-68
2022/01/12 12:19:57;;;;;;;31.33;18.17;;;5.30;99.90;;;;;;5012319;28;21016;-69
2022/01/12 12:22:28;;;;;;;30.97;19.40;;;5.40;99.90;;;;;;5012218;28;20514;-69
2022/01/12 12:24:59;;;;;;;33.80;20.50;;;5.50;99.90;;;;;;5010791;28;20421;-70
2022/01/12 12:27:26;;;;;;;25.83;16.47;;;5.40;99.90;;;;;;5011862;28;20564;-70
2022/01/12 12:29:53;;;;;;;34.43;19.07;;;5.50;99.90;;;;;;5007266;28;20441;-69
2022/01/12 12:32:31;;;;;;;27.63;17.20;;;5.60;99.90;;;;;;5011642;28;20422;-68
2022/01/12 12:35:00;;;;;;;30.77;17.80;;;5.70;99.90;;;;;;5012222;28;20425;-70
2022/01/12 12:37:38;;;;;;;37.13;17.40;;;5.70;99.90;;;;;;5012414;28;20434;-71
2022/01/12 12:40:14;;;;;;;34.23;19.50;;;5.60;99.90;;;;;;5015691;28;20422;-68
2022/01/12 12:42:40;;;;;;;34.63;18.33;;;5.30;99.90;;;;;;5008701;28;20485;-69
2022/01/12 12:45:06;;;;;;;36.33;21.13;;;5.20;99.90;;;;;;5010344;28;20927;-69
2022/01/12 12:47:32;;;;;;;31.30;18.73;;;5.20;99.90;;;;;;5011133;28;20226;-70
2022/01/12 12:50:01;;;;;;;33.67;21.60;;;5.40;99.90;;;;;;5011933;28;20180;-68
2022/01/12 12:52:29;;;;;;;34.67;18.70;;;5.50;99.90;;;;;;5011828;28;20461;-69
2022/01/12 12:55:00;;;;;;;34.63;20.30;;;5.70;99.90;;;;;;5011493;28;20419;-68
2022/01/12 12:57:28;;;;;;;33.73;19.53;;;5.70;99.90;;;;;;5011535;28;20438;-70
2022/01/12 13:00:06;;;;;;;36.50;20.77;;;5.80;99.90;;;;;;5012076;28;20429;-70
2022/01/12 13:02:40;;;;;;;29.73;18.33;;;5.80;99.90;;;;;;5011564;28;20422;-69
2022/01/12 13:05:09;;;;;;;34.90;20.73;;;5.80;99.90;;;;;;5012029;28;20458;-69
2022/01/12 13:07:37;;;;;;;38.17;21.13;;;5.60;99.90;;;;;;4993621;28;21069;-68
2022/01/12 13:10:05;;;;;;;36.30;21.47;;;5.70;99.90;;;;;;5011448;28;20454;-69
2022/01/12 13:12:38;;;;;;;35.53;20.40;;;5.80;99.90;;;;;;5011491;28;20426;-69
2022/01/12 13:15:04;;;;;;;34.17;21.03;;;5.90;99.90;;;;;;5011492;28;20422;-70
2022/01/12 13:17:30;;;;;;;37.67;21.53;;;6.00;99.90;;;;;;5011806;28;20469;-70
2022/01/12 13:22:37;;;;;;;34.83;21.13;;;5.80;99.90;;;;;;5012167;28;20550;-68
2022/01/12 13:25:09;;;;;;;40.37;21.73;;;5.70;99.90;;;;;;5011452;28;20179;-69
2022/01/12 13:27:35;;;;;;;40.10;22.57;;;5.70;99.90;;;;;;5010789;28;20470;-70
2022/01/12 13:30:04;;;;;;;42.50;22.83;;;5.70;99.90;;;;;;5010725;28;20497;-70
2022/01/12 13:32:29;;;;;;;43.03;23.17;;;5.80;99.90;;;;;;4993433;28;20517;-69
2022/01/12 13:34:55;;;;;;;45.10;23.20;;;5.80;99.90;;;;;;5017216;28;20497;-69
2022/01/12 13:37:20;;;;;;;40.13;21.97;;;5.80;99.90;;;;;;5015356;28;20195;-69
2022/01/12 13:40:01;;;;;;;43.77;22.23;;;5.90;99.90;;;;;;5015620;28;20645;-68
2022/01/12 13:42:26;;;;;;;40.03;22.40;;;6.00;99.90;;;;;;5007861;28;20175;-69
2022/01/12 13:45:05;;;;;;;38.83;21.60;;;6.00;99.90;;;;;;5016250;28;20430;-69
2022/01/12 13:47:34;;;;;;;38.33;22.70;;;6.10;99.90;;;;;;5012058;28;20277;-68
2022/01/12 13:50:09;;;;;;;44.03;23.70;;;6.10;99.90;;;;;;5011800;28;20418;-69
2022/01/12 13:52:35;;;;;;;40.37;21.80;;;6.20;99.90;;;;;;5011800;28;20548;-69
2022/01/12 13:55:11;;;;;;;42.60;24.00;;;6.20;99.90;;;;;;5010181;28;20427;-69
2022/01/12 13:57:38;;;;;;;38.37;21.50;;;6.10;99.90;;;;;;5013930;28;20915;-70
2022/01/12 14:00:08;;;;;;;39.50;23.97;;;6.10;99.90;;;;;;5013068;28;20449;-69
2022/01/12 14:02:42;;;;;;;43.10;22.93;;;6.10;99.90;;;;;;5011303;28;20423;-68
2022/01/12 14:05:10;;;;;;;39.83;22.33;;;6.10;99.90;;;;;;4993312;28;20438;-68
2022/01/12 14:07:39;;;;;;;31.67;20.70;;;6.10;99.90;;;;;;5010354;28;20480;-68